sensor_id;sensor_type;location;lat;lon;timestamp;pressure;altitude;pressure_sealevel;temperature;humidity
24422;BME280;12600;53.326;-6.298;2023-04-25T00:01:26;101447.16;;;8.87;66.42
24422;BME280;12600;53.326;-6.298;2023-04-25T00:04:16;101457.25;;;8.87;66.57
24422;BME280;12600;53.326;-6.298;2023-04-25T00:07:05;101460.50;;;8.89;66.24
24422;BME280;12600;53.326;-6.298;2023-04-25T00:09:56;101458.63;;;8.84;66.60
24422;BME280;12600;53.326;-6.298;2023-04-25T00:12:46;101459.16;;;8.81;66.48
24422;BME280;12600;53.326;-6.298;2023-04-25T00:15:36;101462.97;;;8.80;66.60
24422;BME280;12600;53.326;-6.298;2023-04-25T00:18:27;101469.53;;;8.84;66.81
24422;BME280;12600;53.326;-6.298;2023-04-25T00:21:17;101448.81;;;8.78;67.77
24422;BME280;12600;53.326;-6.298;2023-04-25T00:24:08;101444.75;;;8.76;67.42
24422;BME280;12600;53.326;-6.298;2023-04-25T00:26:58;101451.56;;;8.73;67.36
24422;BME280;12600;53.326;-6.298;2023-04-25T00:29:48;101444.22;;;8.68;67.57
24422;BME280;12600;53.326;-6.298;2023-04-25T00:32:37;101451.03;;;8.66;67.76
24422;BME280;12600;53.326;-6.298;2023-04-25T00:35:27;101458.94;;;8.67;68.00
24422;BME280;12600;53.326;-6.298;2023-04-25T00:38:16;101456.22;;;8.67;67.91
24422;BME280;12600;53.326;-6.298;2023-04-25T00:41:07;101443.41;;;8.63;68.31
24422;BME280;12600;53.326;-6.298;2023-04-25T00:43:58;101427.66;;;8.55;68.59
24422;BME280;12600;53.326;-6.298;2023-04-25T00:46:48;101442.31;;;8.64;67.54
24422;BME280;12600;53.326;-6.298;2023-04-25T00:49:38;101450.50;;;8.69;67.92
24422;BME280;12600;53.326;-6.298;2023-04-25T00:52:27;101452.69;;;8.67;67.89
24422;BME280;12600;53.326;-6.298;2023-04-25T00:55:17;101457.56;;;8.65;67.86
24422;BME280;12600;53.326;-6.298;2023-04-25T00:58:06;101450.25;;;8.60;67.54
24422;BME280;12600;53.326;-6.298;2023-04-25T01:00:57;101449.16;;;8.61;68.03
24422;BME280;12600;53.326;-6.298;2023-04-25T01:03:49;101455.97;;;8.59;67.58
24422;BME280;12600;53.326;-6.298;2023-04-25T01:06:40;101454.88;;;8.55;67.45
24422;BME280;12600;53.326;-6.298;2023-04-25T01:09:31;101467.94;;;8.58;68.34
24422;BME280;12600;53.326;-6.298;2023-04-25T01:12:21;101464.69;;;8.61;68.12
24422;BME280;12600;53.326;-6.298;2023-04-25T01:15:10;101452.44;;;8.53;67.89
24422;BME280;12600;53.326;-6.298;2023-04-25T01:18:01;101457.59;;;8.50;69.13
24422;BME280;12600;53.326;-6.298;2023-04-25T01:20:52;101457.91;;;8.43;70.06
24422;BME280;12600;53.326;-6.298;2023-04-25T01:23:43;101457.91;;;8.43;68.65
24422;BME280;12600;53.326;-6.298;2023-04-25T01:26:34;101453.00;;;8.40;69.60
24422;BME280;12600;53.326;-6.298;2023-04-25T01:29:24;101443.44;;;8.32;69.37
24422;BME280;12600;53.326;-6.298;2023-04-25T01:32:14;101445.66;;;8.35;69.50
24422;BME280;12600;53.326;-6.298;2023-04-25T01:35:05;101435.28;;;8.32;69.22
24422;BME280;12600;53.326;-6.298;2023-04-25T01:37:57;101435.31;;;8.37;69.32
24422;BME280;12600;53.326;-6.298;2023-04-25T01:40:50;101434.50;;;8.37;68.58
24422;BME280;12600;53.326;-6.298;2023-04-25T01:43:40;101438.56;;;8.29;68.56
24422;BME280;12600;53.326;-6.298;2023-04-25T01:46:30;101445.63;;;8.25;68.33
24422;BME280;12600;53.326;-6.298;2023-04-25T01:49:20;101433.13;;;8.14;68.66
24422;BME280;12600;53.326;-6.298;2023-04-25T01:52:09;101438.28;;;8.16;68.69
24422;BME280;12600;53.326;-6.298;2023-04-25T01:55:00;101427.69;;;8.04;69.81
24422;BME280;12600;53.326;-6.298;2023-04-25T01:57:54;101430.13;;;8.00;69.37
24422;BME280;12600;53.326;-6.298;2023-04-25T02:00:55;101430.69;;;7.97;69.25
24422;BME280;12600;53.326;-6.298;2023-04-25T02:03:49;101438.31;;;7.90;69.09
24422;BME280;12600;53.326;-6.298;2023-04-25T02:06:54;101441.56;;;7.82;69.44
24422;BME280;12600;53.326;-6.298;2023-04-25T02:09:45;101449.44;;;7.73;70.64
24422;BME280;12600;53.326;-6.298;2023-04-25T02:12:37;101444.28;;;7.72;70.45
24422;BME280;12600;53.326;-6.298;2023-04-25T02:16:06;101453.25;;;7.72;69.90
24422;BME280;12600;53.326;-6.298;2023-04-25T02:18:58;101444.00;;;7.73;69.57
24422;BME280;12600;53.326;-6.298;2023-04-25T02:21:48;101452.16;;;7.73;70.13
24422;BME280;12600;53.326;-6.298;2023-04-25T02:24:37;101440.19;;;7.69;70.25
24422;BME280;12600;53.326;-6.298;2023-04-25T02:27:26;101444.81;;;7.69;70.42
24422;BME280;12600;53.326;-6.298;2023-04-25T02:30:17;101433.66;;;7.65;70.24
24422;BME280;12600;53.326;-6.298;2023-04-25T02:33:08;101442.66;;;7.76;70.99
24422;BME280;12600;53.326;-6.298;2023-04-25T02:35:57;101452.44;;;7.77;70.70
24422;BME280;12600;53.326;-6.298;2023-04-25T02:38:46;101443.47;;;7.66;71.15
24422;BME280;12600;53.326;-6.298;2023-04-25T02:41:35;101446.19;;;7.71;71.91
24422;BME280;12600;53.326;-6.298;2023-04-25T02:44:25;101446.72;;;7.68;71.75
24422;BME280;12600;53.326;-6.298;2023-04-25T02:47:14;101446.72;;;7.68;71.96
24422;BME280;12600;53.326;-6.298;2023-04-25T02:50:07;101449.44;;;7.68;71.27
24422;BME280;12600;53.326;-6.298;2023-04-25T02:52:57;101437.47;;;7.64;71.30
24422;BME280;12600;53.326;-6.298;2023-04-25T02:55:52;101442.38;;;7.62;70.85
24422;BME280;12600;53.326;-6.298;2023-04-25T02:58:42;101441.28;;;7.58;70.56
24422;BME280;12600;53.326;-6.298;2023-04-25T03:01:32;101442.63;;;7.55;70.43
24422;BME280;12600;53.326;-6.298;2023-04-25T03:04:21;101439.63;;;7.52;70.22
24422;BME280;12600;53.326;-6.298;2023-04-25T03:07:13;101434.47;;;7.50;70.68
24422;BME280;12600;53.326;-6.298;2023-04-25T03:10:02;101427.94;;;7.46;70.50
24422;BME280;12600;53.326;-6.298;2023-04-25T03:12:53;101426.28;;;7.45;69.76
24422;BME280;12600;53.326;-6.298;2023-04-25T03:15:43;101423.28;;;7.42;70.37
24422;BME280;12600;53.326;-6.298;2023-04-25T03:18:33;101430.09;;;7.39;70.11
24422;BME280;12600;53.326;-6.298;2023-04-25T03:21:22;101429.81;;;7.31;70.56
24422;BME280;12600;53.326;-6.298;2023-04-25T03:24:13;101423.50;;;7.20;70.86
24422;BME280;12600;53.326;-6.298;2023-04-25T03:27:03;101433.03;;;7.17;71.34
24422;BME280;12600;53.326;-6.298;2023-04-25T03:29:52;101435.44;;;7.14;71.99
24422;BME280;12600;53.326;-6.298;2023-04-25T03:32:41;101446.03;;;7.10;71.87
24422;BME280;12600;53.326;-6.298;2023-04-25T03:35:35;101444.94;;;7.06;72.46
24422;BME280;12600;53.326;-6.298;2023-04-25T03:38:24;101445.19;;;6.99;74.20
24422;BME280;12600;53.326;-6.298;2023-04-25T03:41:15;101452.78;;;6.97;73.32
24422;BME280;12600;53.326;-6.298;2023-04-25T03:44:08;101443.75;;;6.87;73.29
24422;BME280;12600;53.326;-6.298;2023-04-25T03:46:57;101448.69;;;6.90;73.98
24422;BME280;12600;53.326;-6.298;2023-04-25T03:49:46;101443.75;;;6.87;73.39
24422;BME280;12600;53.326;-6.298;2023-04-25T03:52:39;101450.00;;;6.82;73.58
24422;BME280;12600;53.326;-6.298;2023-04-25T03:55:29;101455.13;;;6.79;72.66
24422;BME280;12600;53.326;-6.298;2023-04-25T03:58:20;101450.75;;;6.72;74.17
24422;BME280;12600;53.326;-6.298;2023-04-25T04:01:10;101448.03;;;6.67;73.95
24422;BME280;12600;53.326;-6.298;2023-04-25T04:04:00;101449.94;;;6.67;73.36
24422;BME280;12600;53.326;-6.298;2023-04-25T04:06:50;101448.03;;;6.67;73.29
24422;BME280;12600;53.326;-6.298;2023-04-25T04:09:45;101447.22;;;6.67;73.09
24422;BME280;12600;53.326;-6.298;2023-04-25T04:12:41;101447.44;;;6.65;74.97
24422;BME280;12600;53.326;-6.298;2023-04-25T04:15:33;101440.88;;;6.56;74.43
24422;BME280;12600;53.326;-6.298;2023-04-25T04:18:22;101446.34;;;6.61;74.43
24422;BME280;12600;53.326;-6.298;2023-04-25T04:21:11;101443.31;;;6.53;73.55
24422;BME280;12600;53.326;-6.298;2023-04-25T04:24:02;101443.31;;;6.53;73.91
24422;BME280;12600;53.326;-6.298;2023-04-25T04:27:00;101435.13;;;6.42;74.01
24422;BME280;12600;53.326;-6.298;2023-04-25T04:30:10;101443.81;;;6.44;73.74
24422;BME280;12600;53.326;-6.298;2023-04-25T04:33:14;101450.59;;;6.42;73.84
24422;BME280;12600;53.326;-6.298;2023-04-25T04:36:06;101443.50;;;6.36;73.69
24422;BME280;12600;53.326;-6.298;2023-04-25T04:38:56;101452.72;;;6.35;73.61
24422;BME280;12600;53.326;-6.298;2023-04-25T04:42:11;101450.50;;;6.32;74.28
24422;BME280;12600;53.326;-6.298;2023-04-25T04:45:13;101452.94;;;6.28;73.50
24422;BME280;12600;53.326;-6.298;2023-04-25T04:48:24;101457.50;;;6.23;73.73
24422;BME280;12600;53.326;-6.298;2023-04-25T04:51:33;101453.16;;;6.22;73.50
24422;BME280;12600;53.326;-6.298;2023-04-25T04:54:43;101449.59;;;6.16;73.78
24422;BME280;12600;53.326;-6.298;2023-04-25T04:57:51;101445.38;;;5.98;73.69
24422;BME280;12600;53.326;-6.298;2023-04-25T05:00:58;101448.63;;;6.00;74.49
24422;BME280;12600;53.326;-6.298;2023-04-25T05:04:11;101457.84;;;5.94;74.27
24422;BME280;12600;53.326;-6.298;2023-04-25T05:07:27;101447.00;;;5.94;75.01
24422;BME280;12600;53.326;-6.298;2023-04-25T05:10:40;101458.94;;;5.98;74.39
24422;BME280;12600;53.326;-6.298;2023-04-25T05:13:53;101455.03;;;5.89;74.14
24422;BME280;12600;53.326;-6.298;2023-04-25T05:17:21;101470.88;;;5.97;74.72
24422;BME280;12600;53.326;-6.298;2023-04-25T05:20:34;101475.47;;;5.97;74.74
24422;BME280;12600;53.326;-6.298;2023-04-25T05:23:36;101476.81;;;5.94;75.61
24422;BME280;12600;53.326;-6.298;2023-04-25T05:26:44;101480.59;;;5.93;74.87
24422;BME280;12600;53.326;-6.298;2023-04-25T05:30:09;101478.94;;;5.92;75.34
24422;BME280;12600;53.326;-6.298;2023-04-25T05:33:17;101475.16;;;5.93;74.99
24422;BME280;12600;53.326;-6.298;2023-04-25T05:36:09;101476.81;;;5.94;75.02
24422;BME280;12600;53.326;-6.298;2023-04-25T05:38:58;101478.13;;;5.92;75.38
24422;BME280;12600;53.326;-6.298;2023-04-25T05:42:06;101479.78;;;5.93;75.42
24422;BME280;12600;53.326;-6.298;2023-04-25T05:45:14;101481.97;;;5.96;76.05
24422;BME280;12600;53.326;-6.298;2023-04-25T05:48:23;101481.16;;;5.95;75.45
24422;BME280;12600;53.326;-6.298;2023-04-25T05:51:37;101475.66;;;5.90;75.78
24422;BME280;12600;53.326;-6.298;2023-04-25T05:54:41;101480.91;;;5.97;75.21
24422;BME280;12600;53.326;-6.298;2023-04-25T05:57:30;101416.31;;;5.61;75.45
24422;BME280;12600;53.326;-6.298;2023-04-25T06:00:20;101490.75;;;6.08;75.96
24422;BME280;12600;53.326;-6.298;2023-04-25T06:03:10;101495.69;;;6.11;76.21
24422;BME280;12600;53.326;-6.298;2023-04-25T06:06:06;101496.78;;;6.15;76.12
24422;BME280;12600;53.326;-6.298;2023-04-25T06:08:57;101494.06;;;6.15;76.63
24422;BME280;12600;53.326;-6.298;2023-04-25T06:11:46;101490.88;;;6.23;75.80
24422;BME280;12600;53.326;-6.298;2023-04-25T06:14:36;101494.41;;;6.24;75.57
24422;BME280;12600;53.326;-6.298;2023-04-25T06:17:25;101505.09;;;6.35;76.20
24422;BME280;12600;53.326;-6.298;2023-04-25T06:20:14;101496.75;;;6.42;75.58
24422;BME280;12600;53.326;-6.298;2023-04-25T06:23:04;101511.19;;;6.53;75.77
24422;BME280;12600;53.326;-6.298;2023-04-25T06:26:07;101501.69;;;6.55;75.95
24422;BME280;12600;53.326;-6.298;2023-04-25T06:28:59;101511.53;;;6.61;75.14
24422;BME280;12600;53.326;-6.298;2023-04-25T06:31:49;101509.91;;;6.65;75.50
24422;BME280;12600;53.326;-6.298;2023-04-25T06:34:39;101512.38;;;6.67;75.36
24422;BME280;12600;53.326;-6.298;2023-04-25T06:37:31;101509.41;;;6.68;75.84
24422;BME280;12600;53.326;-6.298;2023-04-25T06:40:21;101517.88;;;6.77;75.98
24422;BME280;12600;53.326;-6.298;2023-04-25T06:43:13;101510.00;;;6.81;76.23
24422;BME280;12600;53.326;-6.298;2023-04-25T06:46:17;101502.44;;;6.88;75.92
24422;BME280;12600;53.326;-6.298;2023-04-25T06:49:09;101504.09;;;6.94;76.01
24422;BME280;12600;53.326;-6.298;2023-04-25T06:51:58;101494.88;;;6.95;75.81
24422;BME280;12600;53.326;-6.298;2023-04-25T06:54:48;101504.72;;;7.06;75.92
24422;BME280;12600;53.326;-6.298;2023-04-25T06:57:56;101499.03;;;7.13;76.10
24422;BME280;12600;53.326;-6.298;2023-04-25T07:01:06;101480.28;;;7.11;75.93
24422;BME280;12600;53.326;-6.298;2023-04-25T07:03:56;101498.81;;;7.29;75.96
24422;BME280;12600;53.326;-6.298;2023-04-25T07:06:46;101486.38;;;7.39;75.65
24422;BME280;12600;53.326;-6.298;2023-04-25T07:09:41;101494.56;;;7.49;76.26
24422;BME280;12600;53.326;-6.298;2023-04-25T07:12:31;101495.94;;;7.56;75.68
24422;BME280;12600;53.326;-6.298;2023-04-25T07:15:20;101484.78;;;7.58;75.42
24422;BME280;12600;53.326;-6.298;2023-04-25T07:18:12;101491.59;;;7.66;74.83
24422;BME280;12600;53.326;-6.298;2023-04-25T07:21:01;101492.41;;;7.66;74.60
24422;BME280;12600;53.326;-6.298;2023-04-25T07:23:53;101488.91;;;7.71;74.62
24422;BME280;12600;53.326;-6.298;2023-04-25T07:26:47;101496.78;;;7.77;74.26
24422;BME280;12600;53.326;-6.298;2023-04-25T07:29:48;101491.34;;;7.82;74.38
24422;BME280;12600;53.326;-6.298;2023-04-25T07:32:37;101483.47;;;7.91;74.83
24422;BME280;12600;53.326;-6.298;2023-04-25T07:35:29;101494.63;;;8.10;75.78
24422;BME280;12600;53.326;-6.298;2023-04-25T07:38:19;101501.97;;;8.25;76.15
24422;BME280;12600;53.326;-6.298;2023-04-25T07:41:08;101479.41;;;8.29;76.38
24422;BME280;12600;53.326;-6.298;2023-04-25T07:43:58;101494.91;;;8.49;76.02
24422;BME280;12600;53.326;-6.298;2023-04-25T07:46:47;101501.44;;;8.63;75.78
24422;BME280;12600;53.326;-6.298;2023-04-25T07:49:39;101496.28;;;8.67;75.29
24422;BME280;12600;53.326;-6.298;2023-04-25T07:52:30;101511.22;;;8.80;73.68
24422;BME280;12600;53.326;-6.298;2023-04-25T07:55:32;101506.00;;;8.88;74.21
24422;BME280;12600;53.326;-6.298;2023-04-25T07:58:28;101506.25;;;8.97;74.31
24422;BME280;12600;53.326;-6.298;2023-04-25T08:01:20;101506.25;;;9.02;72.97
24422;BME280;12600;53.326;-6.298;2023-04-25T08:04:15;101501.84;;;9.11;74.45
24422;BME280;12600;53.326;-6.298;2023-04-25T08:07:11;101504.22;;;9.28;74.91
24422;BME280;12600;53.326;-6.298;2023-04-25T08:10:14;101499.06;;;9.32;74.34
24422;BME280;12600;53.326;-6.298;2023-04-25T08:13:04;101509.09;;;9.46;74.92
24422;BME280;12600;53.326;-6.298;2023-04-25T08:15:54;101508.75;;;9.53;75.20
24422;BME280;12600;53.326;-6.298;2023-04-25T08:18:44;101506.25;;;9.62;75.45
24422;BME280;12600;53.326;-6.298;2023-04-25T08:21:33;101509.28;;;9.99;76.99
24422;BME280;12600;53.326;-6.298;2023-04-25T08:24:26;101503.28;;;10.65;78.60
24422;BME280;12600;53.326;-6.298;2023-04-25T08:27:18;101500.22;;;11.39;78.35
24422;BME280;12600;53.326;-6.298;2023-04-25T08:30:09;101507.31;;;12.20;79.15
24422;BME280;12600;53.326;-6.298;2023-04-25T08:33:00;101515.78;;;12.98;79.18
24422;BME280;12600;53.326;-6.298;2023-04-25T08:36:13;101511.25;;;13.70;78.81
24422;BME280;12600;53.326;-6.298;2023-04-25T08:39:18;101520.22;;;14.43;80.41
24422;BME280;12600;53.326;-6.298;2023-04-25T08:42:33;101517.28;;;14.85;77.65
24422;BME280;12600;53.326;-6.298;2023-04-25T08:45:26;101521.50;;;15.39;79.28
24422;BME280;12600;53.326;-6.298;2023-04-25T08:48:17;101515.44;;;15.85;77.43
24422;BME280;12600;53.326;-6.298;2023-04-25T08:51:08;101517.69;;;16.27;74.33
24422;BME280;12600;53.326;-6.298;2023-04-25T08:54:09;101515.19;;;16.68;73.48
24422;BME280;12600;53.326;-6.298;2023-04-25T08:57:21;101519.25;;;17.18;68.40
24422;BME280;12600;53.326;-6.298;2023-04-25T09:00:14;101513.47;;;17.31;61.82
24422;BME280;12600;53.326;-6.298;2023-04-25T09:03:05;101514.44;;;17.56;59.92
24422;BME280;12600;53.326;-6.298;2023-04-25T09:05:55;101515.38;;;17.90;59.35
24422;BME280;12600;53.326;-6.298;2023-04-25T09:08:45;101519.69;;;18.00;55.49
24422;BME280;12600;53.326;-6.298;2023-04-25T09:11:36;101508.69;;;17.91;54.03
24422;BME280;12600;53.326;-6.298;2023-04-25T09:14:29;101510.50;;;17.87;50.45
24422;BME280;12600;53.326;-6.298;2023-04-25T09:17:37;101523.13;;;17.97;49.01
24422;BME280;12600;53.326;-6.298;2023-04-25T09:20:28;101515.75;;;18.22;48.40
24422;BME280;12600;53.326;-6.298;2023-04-25T09:23:20;101513.69;;;17.98;45.76
24422;BME280;12600;53.326;-6.298;2023-04-25T09:26:10;101513.97;;;17.54;43.21
24422;BME280;12600;53.326;-6.298;2023-04-25T09:29:05;101508.50;;;17.46;43.67
24422;BME280;12600;53.326;-6.298;2023-04-25T09:32:17;101518.94;;;17.11;43.49
24422;BME280;12600;53.326;-6.298;2023-04-25T09:35:10;101504.81;;;16.57;44.37
24422;BME280;12600;53.326;-6.298;2023-04-25T09:38:00;101509.91;;;16.20;44.98
24422;BME280;12600;53.326;-6.298;2023-04-25T09:41:10;101502.63;;;16.07;45.55
24422;BME280;12600;53.326;-6.298;2023-04-25T09:44:06;101506.59;;;16.61;46.01
24422;BME280;12600;53.326;-6.298;2023-04-25T09:46:57;101506.59;;;17.08;44.94
24422;BME280;12600;53.326;-6.298;2023-04-25T09:49:51;101518.28;;;17.64;43.59
24422;BME280;12600;53.326;-6.298;2023-04-25T09:52:43;101520.75;;;17.86;42.95
24422;BME280;12600;53.326;-6.298;2023-04-25T09:55:42;101519.34;;;17.80;42.32
24422;BME280;12600;53.326;-6.298;2023-04-25T09:58:37;101513.16;;;17.83;42.12
24422;BME280;12600;53.326;-6.298;2023-04-25T10:01:28;101526.38;;;17.99;42.28
24422;BME280;12600;53.326;-6.298;2023-04-25T10:04:28;101525.88;;;18.17;41.58
24422;BME280;12600;53.326;-6.298;2023-04-25T10:07:34;101524.09;;;18.34;41.95
24422;BME280;12600;53.326;-6.298;2023-04-25T10:10:32;101520.97;;;18.35;41.31
24422;BME280;12600;53.326;-6.298;2023-04-25T10:13:24;101518.91;;;18.32;41.55
24422;BME280;12600;53.326;-6.298;2023-04-25T10:16:14;101534.16;;;18.38;41.01
24422;BME280;12600;53.326;-6.298;2023-04-25T10:19:04;101529.28;;;18.35;41.08
24422;BME280;12600;53.326;-6.298;2023-04-25T10:22:03;101536.75;;;18.02;40.63
24422;BME280;12600;53.326;-6.298;2023-04-25T10:24:54;101532.59;;;17.66;41.07
24422;BME280;12600;53.326;-6.298;2023-04-25T10:27:46;101519.16;;;16.97;40.75
24422;BME280;12600;53.326;-6.298;2023-04-25T10:30:35;101534.66;;;16.81;41.07
24422;BME280;12600;53.326;-6.298;2023-04-25T10:33:32;101528.84;;;16.56;41.80
24422;BME280;12600;53.326;-6.298;2023-04-25T10:36:24;101515.59;;;16.32;42.38
24422;BME280;12600;53.326;-6.298;2023-04-25T10:39:23;101525.00;;;16.14;42.67
24422;BME280;12600;53.326;-6.298;2023-04-25T10:42:12;101530.22;;;15.98;42.93
24422;BME280;12600;53.326;-6.298;2023-04-25T10:45:06;101524.50;;;15.69;42.97
24422;BME280;12600;53.326;-6.298;2023-04-25T10:47:56;101522.22;;;15.62;42.82
24422;BME280;12600;53.326;-6.298;2023-04-25T10:50:45;101516.19;;;15.60;43.22
24422;BME280;12600;53.326;-6.298;2023-04-25T10:53:34;101518.34;;;15.72;43.76
24422;BME280;12600;53.326;-6.298;2023-04-25T10:56:28;101514.47;;;15.81;43.86
24422;BME280;12600;53.326;-6.298;2023-04-25T10:59:18;101518.50;;;16.18;43.40
24422;BME280;12600;53.326;-6.298;2023-04-25T11:02:13;101516.56;;;16.36;43.28
24422;BME280;12600;53.326;-6.298;2023-04-25T11:05:03;101516.38;;;16.33;43.47
24422;BME280;12600;53.326;-6.298;2023-04-25T11:07:54;101507.97;;;16.29;43.50
24422;BME280;12600;53.326;-6.298;2023-04-25T11:10:48;101499.00;;;16.41;43.39
24422;BME280;12600;53.326;-6.298;2023-04-25T11:13:38;101510.50;;;16.51;42.89
24422;BME280;12600;53.326;-6.298;2023-04-25T11:16:28;101504.78;;;16.74;42.04
24422;BME280;12600;53.326;-6.298;2023-04-25T11:19:21;101499.22;;;17.50;42.79
24422;BME280;12600;53.326;-6.298;2023-04-25T11:22:10;101507.84;;;18.44;41.28
24422;BME280;12600;53.326;-6.298;2023-04-25T11:25:05;101508.00;;;19.06;39.12
24422;BME280;12600;53.326;-6.298;2023-04-25T11:27:57;101498.47;;;19.55;39.17
24422;BME280;12600;53.326;-6.298;2023-04-25T11:30:48;101496.53;;;19.56;37.02
24422;BME280;12600;53.326;-6.298;2023-04-25T11:33:38;101492.16;;;19.67;36.40
24422;BME280;12600;53.326;-6.298;2023-04-25T11:36:30;101496.69;;;19.35;36.83
24422;BME280;12600;53.326;-6.298;2023-04-25T11:39:20;101452.50;;;18.78;36.82
24422;BME280;12600;53.326;-6.298;2023-04-25T11:42:09;101494.59;;;19.32;36.74
24422;BME280;12600;53.326;-6.298;2023-04-25T11:45:01;101486.72;;;19.46;36.49
24422;BME280;12600;53.326;-6.298;2023-04-25T11:47:50;101495.06;;;19.59;36.76
24422;BME280;12600;53.326;-6.298;2023-04-25T11:50:41;101489.44;;;19.83;36.68
24422;BME280;12600;53.326;-6.298;2023-04-25T11:53:31;101487.44;;;19.96;36.27
24422;BME280;12600;53.326;-6.298;2023-04-25T11:56:21;101481.84;;;19.55;36.04
24422;BME280;12600;53.326;-6.298;2023-04-25T11:59:10;101485.31;;;18.55;35.26
24422;BME280;12600;53.326;-6.298;2023-04-25T12:02:01;101491.69;;;18.34;35.85
24422;BME280;12600;53.326;-6.298;2023-04-25T12:04:50;101491.22;;;18.65;35.90
24422;BME280;12600;53.326;-6.298;2023-04-25T12:07:40;101483.66;;;19.11;36.04
24422;BME280;12600;53.326;-6.298;2023-04-25T12:10:31;101492.66;;;19.57;36.68
24422;BME280;12600;53.326;-6.298;2023-04-25T12:13:22;101471.00;;;19.75;35.25
24422;BME280;12600;53.326;-6.298;2023-04-25T12:16:12;101490.31;;;19.99;35.02
24422;BME280;12600;53.326;-6.298;2023-04-25T12:19:01;101478.28;;;19.55;35.27
24422;BME280;12600;53.326;-6.298;2023-04-25T12:21:52;101468.41;;;18.81;35.72
24422;BME280;12600;53.326;-6.298;2023-04-25T12:24:46;101486.81;;;18.19;37.02
24422;BME280;12600;53.326;-6.298;2023-04-25T12:27:37;101495.06;;;17.65;37.81
24422;BME280;12600;53.326;-6.298;2023-04-25T12:30:28;101483.28;;;17.26;38.70
24422;BME280;12600;53.326;-6.298;2023-04-25T12:33:17;101480.50;;;16.97;38.81
24422;BME280;12600;53.326;-6.298;2023-04-25T12:36:07;101480.75;;;16.74;39.39
24422;BME280;12600;53.326;-6.298;2023-04-25T12:38:58;101480.50;;;16.41;39.69
24422;BME280;12600;53.326;-6.298;2023-04-25T12:41:51;101478.72;;;16.54;40.68
24422;BME280;12600;53.326;-6.298;2023-04-25T12:44:43;101481.13;;;16.56;40.25
24422;BME280;12600;53.326;-6.298;2023-04-25T12:47:32;101483.38;;;16.71;40.46
24422;BME280;12600;53.326;-6.298;2023-04-25T12:50:23;101487.75;;;16.72;40.77
24422;BME280;12600;53.326;-6.298;2023-04-25T12:53:12;101485.84;;;16.55;40.38
24422;BME280;12600;53.326;-6.298;2023-04-25T12:56:02;101477.25;;;16.48;40.98
24422;BME280;12600;53.326;-6.298;2023-04-25T12:58:51;101471.59;;;16.36;40.31
24422;BME280;12600;53.326;-6.298;2023-04-25T13:01:42;101477.16;;;16.18;40.41
24422;BME280;12600;53.326;-6.298;2023-04-25T13:04:33;101477.13;;;16.27;40.43
24422;BME280;12600;53.326;-6.298;2023-04-25T13:07:22;101481.53;;;16.19;40.19
24422;BME280;12600;53.326;-6.298;2023-04-25T13:10:12;101467.28;;;16.00;40.41
24422;BME280;12600;53.326;-6.298;2023-04-25T13:13:01;101473.28;;;15.93;40.92
24422;BME280;12600;53.326;-6.298;2023-04-25T13:15:50;101480.59;;;15.81;41.76
24422;BME280;12600;53.326;-6.298;2023-04-25T13:18:41;101461.75;;;15.48;42.25
24422;BME280;12600;53.326;-6.298;2023-04-25T13:21:30;101471.94;;;15.39;42.79
24422;BME280;12600;53.326;-6.298;2023-04-25T13:24:20;101473.84;;;15.30;43.50
24422;BME280;12600;53.326;-6.298;2023-04-25T13:27:10;101476.78;;;15.33;43.70
24422;BME280;12600;53.326;-6.298;2023-04-25T13:29:59;101480.50;;;15.29;44.08
24422;BME280;12600;53.326;-6.298;2023-04-25T13:32:49;101477.72;;;15.20;44.59
24422;BME280;12600;53.326;-6.298;2023-04-25T13:35:41;101458.44;;;15.11;44.69
24422;BME280;12600;53.326;-6.298;2023-04-25T13:38:30;101476.94;;;15.37;44.46
24422;BME280;12600;53.326;-6.298;2023-04-25T13:41:20;101468.56;;;15.59;44.35
24422;BME280;12600;53.326;-6.298;2023-04-25T13:44:09;101459.34;;;15.90;44.47
24422;BME280;12600;53.326;-6.298;2023-04-25T13:46:59;101456.75;;;15.93;44.57
24422;BME280;12600;53.326;-6.298;2023-04-25T13:49:48;101458.88;;;16.05;43.71
24422;BME280;12600;53.326;-6.298;2023-04-25T13:52:39;101454.97;;;16.06;44.01
24422;BME280;12600;53.326;-6.298;2023-04-25T13:55:29;101460.31;;;15.77;44.07
24422;BME280;12600;53.326;-6.298;2023-04-25T13:58:18;101454.59;;;15.47;43.64
24422;BME280;12600;53.326;-6.298;2023-04-25T14:01:08;101450.56;;;15.36;43.88
24422;BME280;12600;53.326;-6.298;2023-04-25T14:03:57;101441.16;;;15.28;44.53
24422;BME280;12600;53.326;-6.298;2023-04-25T14:06:47;101444.53;;;15.08;44.15
24422;BME280;12600;53.326;-6.298;2023-04-25T14:09:38;101434.88;;;14.79;43.76
24422;BME280;12600;53.326;-6.298;2023-04-25T14:12:27;101446.56;;;14.85;43.66
24422;BME280;12600;53.326;-6.298;2023-04-25T14:15:16;101434.56;;;14.90;43.95
24422;BME280;12600;53.326;-6.298;2023-04-25T14:18:05;101442.66;;;14.86;44.15
24422;BME280;12600;53.326;-6.298;2023-04-25T14:20:55;101444.16;;;14.92;43.94
24422;BME280;12600;53.326;-6.298;2023-04-25T14:23:44;101432.19;;;15.05;43.62
24422;BME280;12600;53.326;-6.298;2023-04-25T14:26:36;101424.94;;;15.09;42.91
24422;BME280;12600;53.326;-6.298;2023-04-25T14:29:25;101418.78;;;15.21;42.09
24422;BME280;12600;53.326;-6.298;2023-04-25T14:32:14;101428.38;;;15.58;41.66
24422;BME280;12600;53.326;-6.298;2023-04-25T14:35:05;101423.84;;;15.80;41.21
24422;BME280;12600;53.326;-6.298;2023-04-25T14:37:55;101424.00;;;15.92;40.76
24422;BME280;12600;53.326;-6.298;2023-04-25T14:40:44;101418.97;;;15.94;40.45
24422;BME280;12600;53.326;-6.298;2023-04-25T14:43:35;101423.56;;;15.73;39.57
24422;BME280;12600;53.326;-6.298;2023-04-25T14:46:24;101404.41;;;15.85;40.17
24422;BME280;12600;53.326;-6.298;2023-04-25T14:49:14;101422.75;;;15.72;39.69
24422;BME280;12600;53.326;-6.298;2023-04-25T14:52:04;101415.28;;;15.64;39.68
24422;BME280;12600;53.326;-6.298;2023-04-25T14:54:53;101430.16;;;15.46;39.53
24422;BME280;12600;53.326;-6.298;2023-04-25T14:57:42;101428.66;;;15.31;40.33
24422;BME280;12600;53.326;-6.298;2023-04-25T15:00:33;101426.72;;;15.23;40.77